Time;durP1;ratioP1;P1;durP2;ratioP2;P2;SDS_P1;SDS_P2;PMS_P1;PMS_P2;Temp;Humidity;BMP_temperature;BMP_pressure;BME280_temperature;BME280_humidity;BME280_pressure;Samples;Min_cycle;Max_cycle;Signal;HPM_P1;HPM_P2
2021/07/01 00:01:23;;;;;;;4.40;0.97;;;25.60;53.10;;;;;;4953055;29;20437;-83
2021/07/01 00:04:01;;;;;;;0.90;0.70;;;25.60;53.10;;;;;;4938329;29;20392;-83
2021/07/01 00:06:44;;;;;;;;;;;;;;;;;;;;;
2021/07/01 00:09:18;;;;;;;1.10;0.93;;;25.60;53.10;;;;;;4938559;29;20423;-83
2021/07/01 00:11:48;;;;;;;1.37;0.80;;;25.60;53.80;;;;;;4937360;29;20438;-83
2021/07/01 00:14:19;;;;;;;1.70;0.87;;;25.60;53.20;;;;;;4937226;29;20431;-83
2021/07/01 00:17:01;;;;;;;1.20;0.70;;;25.60;53.20;;;;;;4938690;29;20483;-84
2021/07/01 00:19:35;;;;;;;1.87;0.97;;;25.60;53.20;;;;;;4938449;29;20435;-83
2021/07/01 00:22:11;;;;;;;3.50;0.80;;;25.60;53.30;;;;;;4954566;29;20411;-83
2021/07/01 00:24:44;;;;;;;1.13;0.83;;;25.60;53.30;;;;;;4937959;29;20403;-83
2021/07/01 00:27:13;;;;;;;3.43;0.77;;;25.60;53.30;;;;;;4953027;29;20423;-83
2021/07/01 00:29:46;;;;;;;1.80;1.03;;;25.60;53.40;;;;;;4952808;29;20420;-83
2021/07/01 00:32:17;;;;;;;1.30;0.70;;;25.50;53.40;;;;;;4952716;29;20426;-83
2021/07/01 00:34:50;;;;;;;1.67;1.00;;;25.50;53.50;;;;;;4937839;29;20487;-83
2021/07/01 00:37:24;;;;;;;2.13;0.80;;;25.50;53.50;;;;;;4936897;29;20470;-83
2021/07/01 00:39:54;;;;;;;2.10;0.70;;;25.50;53.50;;;;;;4937277;29;20432;-83
2021/07/01 00:42:36;;;;;;;1.80;0.90;;;25.50;53.50;;;;;;4937943;29;20424;-83
2021/07/01 00:45:07;;;;;;;2.00;0.80;;;25.50;53.50;;;;;;4933707;29;20511;-83
2021/07/01 00:47:38;;;;;;;1.83;0.80;;;25.40;53.50;;;;;;4933275;29;20459;-83
2021/07/01 00:50:09;;;;;;;1.77;0.80;;;25.40;53.50;;;;;;4934776;29;20411;-83
2021/07/01 00:52:37;;;;;;;3.13;0.90;;;25.50;53.60;;;;;;4932612;29;20460;-83
2021/07/01 00:55:08;;;;;;;1.00;0.80;;;25.40;53.50;;;;;;4948778;29;20447;-83
2021/07/01 00:57:35;;;;;;;1.57;1.10;;;25.50;53.60;;;;;;4948824;29;20404;-83
2021/07/01 01:00:19;;;;;;;1.97;0.90;;;25.40;53.60;;;;;;4932532;29;20455;-83
2021/07/01 01:02:47;;;;;;;0.97;0.77;;;25.40;53.60;;;;;;4933380;29;20388;-83
2021/07/01 01:05:14;;;;;;;1.50;0.70;;;25.40;53.70;;;;;;4934155;29;20423;-83
2021/07/01 01:07:45;;;;;;;1.83;0.80;;;25.40;53.70;;;;;;4932073;29;20428;-83
2021/07/01 01:10:19;;;;;;;3.17;0.80;;;25.40;53.70;;;;;;4933878;29;20420;-83
2021/07/01 01:12:49;;;;;;;1.30;0.80;;;25.40;53.70;;;;;;4934493;29;20419;-83
2021/07/01 01:15:18;;;;;;;1.60;0.80;;;25.40;53.80;;;;;;4948833;29;20463;-84
2021/07/01 01:17:47;;;;;;;1.50;0.90;;;25.40;53.80;;;;;;4948566;29;20432;-83
2021/07/01 01:20:18;;;;;;;2.73;1.10;;;25.40;53.80;;;;;;4948132;29;20427;-83
2021/07/01 01:22:53;;;;;;;1.33;0.80;;;25.30;53.80;;;;;;4914508;29;20424;-83
2021/07/01 01:25:20;;;;;;;0.90;0.70;;;25.30;54.00;;;;;;4914889;29;20413;-83
2021/07/01 01:27:51;;;;;;;1.20;0.83;;;25.20;54.00;;;;;;4914047;29;20428;-83
2021/07/01 01:30:19;;;;;;;4.90;0.87;;;25.20;54.00;;;;;;4920238;29;20783;-83
2021/07/01 01:32:47;;;;;;;1.50;0.80;;;25.20;54.10;;;;;;4948904;29;20463;-83
2021/07/01 01:35:16;;;;;;;1.97;0.80;;;25.20;54.10;;;;;;4949576;29;20531;-83
2021/07/01 01:37:54;;;;;;;3.17;1.77;;;25.20;54.10;;;;;;4934489;29;20414;-83
2021/07/01 01:40:25;;;;;;;1.83;0.90;;;25.20;54.10;;;;;;4947523;29;20400;-84
2021/07/01 01:42:55;;;;;;;1.73;0.80;;;25.20;54.00;;;;;;4933853;29;20415;-83
2021/07/01 01:45:26;;;;;;;1.00;0.80;;;25.20;54.00;;;;;;4948579;29;20439;-83
2021/07/01 01:47:55;;;;;;;1.77;0.80;;;25.20;54.00;;;;;;4948840;29;20424;-84
2021/07/01 01:50:27;;;;;;;1.40;0.90;;;25.20;53.90;;;;;;4948796;29;20435;-84
2021/07/01 01:52:55;;;;;;;4.60;1.00;;;25.20;53.90;;;;;;4917461;29;20499;-84
2021/07/01 01:55:23;;;;;;;11.70;1.83;;;25.20;54.40;;;;;;4933933;29;20472;-84
2021/07/01 01:57:54;;;;;;;2.40;1.00;;;25.20;53.80;;;;;;4932958;29;20424;-84
2021/07/01 02:00:26;;;;;;;1.40;1.00;;;25.20;53.80;;;;;;4934815;29;20408;-84
2021/07/01 02:02:55;;;;;;;0.90;0.80;;;25.20;53.90;;;;;;4932707;29;20425;-84
2021/07/01 02:05:23;;;;;;;1.73;1.10;;;25.20;53.80;;;;;;4948993;29;20498;-84
2021/07/01 02:07:51;;;;;;;1.73;0.80;;;25.20;53.80;;;;;;4947978;29;20520;-84
2021/07/01 02:10:27;;;;;;;1.00;0.90;;;25.20;53.80;;;;;;4948284;29;20431;-84
2021/07/01 02:13:10;;;;;;;1.10;0.80;;;25.20;53.80;;;;;;4930488;29;20435;-85
2021/07/01 02:15:40;;;;;;;1.33;1.23;;;25.20;53.80;;;;;;4934373;29;20462;-83
2021/07/01 02:18:09;;;;;;;1.77;0.90;;;25.20;53.80;;;;;;4953330;29;20921;-83
2021/07/01 02:20:41;;;;;;;1.50;1.20;;;25.10;53.80;;;;;;4938452;29;20426;-84
2021/07/01 02:23:07;;;;;;;1.57;1.00;;;25.10;53.90;;;;;;4953866;29;21027;-84
2021/07/01 02:25:36;;;;;;;1.83;0.90;;;25.10;54.10;;;;;;4952896;29;20425;-84
2021/07/01 02:28:05;;;;;;;1.27;1.10;;;25.10;54.10;;;;;;4953096;29;20428;-83
2021/07/01 02:30:34;;;;;;;2.17;0.90;;;25.00;54.10;;;;;;4952611;29;20427;-83
2021/07/01 02:33:04;;;;;;;1.33;1.00;;;25.00;54.20;;;;;;4953172;29;20428;-84
2021/07/01 02:35:33;;;;;;;2.37;1.30;;;24.90;54.20;;;;;;4953091;29;20490;-83
2021/07/01 02:38:03;;;;;;;1.60;1.07;;;24.90;54.20;;;;;;4952821;29;20450;-82
2021/07/01 02:40:31;;;;;;;1.50;1.40;;;24.90;54.30;;;;;;4952497;29;20412;-83
2021/07/01 02:42:58;;;;;;;1.40;0.93;;;24.80;54.30;;;;;;4937648;29;20424;-83
2021/07/01 02:45:27;;;;;;;1.27;1.17;;;24.80;54.30;;;;;;4951500;29;20463;-84
2021/07/01 06:34:39;;;;;;;2.60;0.90;;;25.00;54.80;;;;;;4938036;28;20470;-84
2021/07/01 06:37:12;;;;;;;1.40;1.03;;;25.00;54.70;;;;;;4938476;29;20499;-85
2021/07/01 06:40:04;;;;;;;2.53;1.00;;;25.00;54.70;;;;;;4944721;29;20423;-84
2021/07/01 06:42:43;;;;;;;1.20;0.90;;;25.10;54.50;;;;;;4935857;29;20437;-84
2021/07/01 06:45:11;;;;;;;1.43;1.00;;;25.10;54.40;;;;;;4920026;29;20431;-86
2021/07/01 06:47:39;;;;;;;1.07;0.90;;;25.20;54.40;;;;;;4944279;29;20798;-86
2021/07/01 06:50:09;;;;;;;1.00;0.80;;;25.20;54.30;;;;;;4942184;29;20410;-85
2021/07/01 06:52:50;;;;;;;1.67;1.00;;;25.20;54.30;;;;;;4908628;29;20416;-85
2021/07/01 06:55:19;;;;;;;1.00;0.90;;;25.30;54.20;;;;;;4938852;29;20459;-85
2021/07/01 06:57:48;;;;;;;1.30;1.00;;;25.30;54.20;;;;;;4939269;29;20427;-84
2021/07/01 07:03:19;;;;;;;3.90;1.30;;;25.40;54.20;;;;;;4936056;29;20420;-82
2021/07/01 07:05:56;;;;;;;1.73;0.90;;;25.40;54.20;;;;;;4953877;29;20423;-82
2021/07/01 07:08:49;;;;;;;2.13;0.80;;;25.50;54.20;;;;;;4942266;29;20420;-82
2021/07/01 07:28:56;;;;;;;1.93;1.37;;;25.50;54.00;;;;;;4739959;30;20425;-82
2021/07/01 07:31:58;;;;;;;1.20;0.87;;;25.40;54.00;;;;;;4726126;30;20429;-83
2021/07/01 07:37:49;;;;;;;1.73;0.87;;;25.50;53.90;;;;;;4705646;30;20454;-82
2021/07/01 07:40:49;;;;;;;1.53;1.00;;;25.50;54.00;;;;;;4697865;30;20495;-82
2021/07/01 07:43:28;;;;;;;0.80;0.70;;;25.50;54.00;;;;;;4689735;30;20420;-82
2021/07/01 07:46:07;;;;;;;1.20;0.77;;;25.60;54.00;;;;;;4692453;30;20436;-83
2021/07/01 07:48:38;;;;;;;2.83;1.30;;;25.60;53.90;;;;;;4702930;30;20414;-83
2021/07/01 07:51:18;;;;;;;2.03;0.90;;;25.60;53.90;;;;;;4702299;30;20424;-84
2021/07/01 07:53:56;;;;;;;1.30;1.10;;;25.70;53.90;;;;;;4731321;30;20420;-82
2021/07/01 07:56:38;;;;;;;1.37;1.00;;;25.70;53.80;;;;;;4772197;30;20525;-82
2021/07/01 07:59:21;;;;;;;1.20;1.00;;;25.70;53.80;;;;;;4792365;30;20453;-82
2021/07/01 08:02:07;;;;;;;1.97;0.90;;;25.70;53.80;;;;;;4869378;29;20422;-82
2021/07/01 08:04:42;;;;;;;1.10;0.80;;;25.70;53.80;;;;;;4914833;29;20547;-83
2021/07/01 08:07:10;;;;;;;1.00;0.87;;;25.60;53.70;;;;;;4937978;29;20414;-83
2021/07/01 08:09:37;;;;;;;1.10;1.00;;;25.70;53.80;;;;;;4954344;29;20427;-83
2021/07/01 08:12:12;;;;;;;1.43;0.90;;;25.70;53.80;;;;;;4938177;29;20441;-83
2021/07/01 08:14:42;;;;;;;1.20;1.00;;;25.80;53.80;;;;;;4936600;29;20460;-83
2021/07/01 08:17:14;;;;;;;1.30;1.07;;;25.80;53.70;;;;;;4953438;29;20452;-83
2021/07/01 08:19:47;;;;;;;1.13;0.90;;;25.80;53.70;;;;;;4938066;29;20452;-83
2021/07/01 08:22:15;;;;;;;1.20;1.00;;;25.80;53.60;;;;;;4938452;29;20403;-83
2021/07/01 08:24:50;;;;;;;2.00;1.00;;;25.80;53.60;;;;;;4938507;29;20499;-83
2021/07/01 08:27:20;;;;;;;1.20;1.00;;;25.80;53.70;;;;;;4937856;29;20421;-83
2021/07/01 08:29:47;;;;;;;1.10;0.90;;;25.80;53.60;;;;;;4938925;29;20396;-83
2021/07/01 08:32:31;;;;;;;1.00;0.83;;;25.80;53.60;;;;;;4938473;29;20396;-83
2021/07/01 08:35:02;;;;;;;2.00;1.43;;;25.80;53.50;;;;;;4953110;29;20500;-83
2021/07/01 08:37:30;;;;;;;1.20;1.10;;;25.90;53.60;;;;;;4953838;29;20452;-83
2021/07/01 08:40:19;;;;;;;;;;;;;;;;;;;;;
2021/07/01 08:43:12;;;;;;;1.37;1.10;;;25.90;53.60;;;;;;4939609;29;20454;-83
2021/07/01 08:46:34;;;;;;;1.40;1.10;;;25.90;53.50;;;;;;4938303;29;20408;-84
2021/07/01 08:49:31;;;;;;;1.10;0.87;;;25.90;53.50;;;;;;4891184;29;20430;-83
2021/07/01 08:52:07;;;;;;;1.20;1.00;;;25.90;53.60;;;;;;4883066;29;20421;-83
2021/07/01 08:55:15;;;;;;;1.50;1.20;;;25.90;53.60;;;;;;4897815;29;20537;-83
2021/07/01 08:57:50;;;;;;;2.43;1.20;;;25.90;53.50;;;;;;4899018;29;20436;-82
2021/07/01 09:00:26;;;;;;;1.10;0.90;;;25.90;53.60;;;;;;4899639;29;20398;-82
2021/07/01 09:09:40;;;;;;;1.57;1.20;;;25.90;53.50;;;;;;4899333;29;20394;-83
2021/07/01 09:12:12;;;;;;;1.40;1.30;;;25.90;53.50;;;;;;4897972;29;20837;-83
2021/07/01 09:14:47;;;;;;;1.10;0.97;;;25.90;53.50;;;;;;4898598;29;20410;-83
2021/07/01 09:17:15;;;;;;;1.27;1.17;;;25.90;53.50;;;;;;4898868;29;20469;-83
2021/07/01 09:19:43;;;;;;;1.57;1.20;;;25.90;53.50;;;;;;4883111;29;20430;-83
2021/07/01 09:22:19;;;;;;;1.73;1.37;;;25.90;53.40;;;;;;4897958;29;20445;-83
2021/07/01 09:25:15;;;;;;;1.50;1.30;;;26.00;53.50;;;;;;4916965;29;20423;-83
2021/07/01 09:27:51;;;;;;;1.50;1.40;;;26.00;53.40;;;;;;4952072;29;20427;-83
2021/07/01 09:30:28;;;;;;;1.57;1.47;;;26.00;53.40;;;;;;4953039;29;20511;-84
2021/07/01 09:33:04;;;;;;;1.47;1.13;;;26.00;53.40;;;;;;4949496;29;20423;-83
2021/07/01 09:35:45;;;;;;;2.00;1.30;;;26.00;54.00;;;;;;4937296;29;20443;-84
2021/07/01 09:38:12;;;;;;;1.60;1.20;;;26.00;53.40;;;;;;4952654;29;20427;-84
2021/07/01 09:40:55;;;;;;;1.30;1.10;;;25.90;53.30;;;;;;4937373;29;20446;-83
2021/07/01 09:43:34;;;;;;;1.47;1.30;;;26.00;53.40;;;;;;4937093;29;20419;-83
2021/07/01 09:46:01;;;;;;;1.23;1.00;;;26.00;53.30;;;;;;4920629;29;20427;-83
2021/07/01 09:48:34;;;;;;;1.60;1.20;;;26.10;53.40;;;;;;4936157;29;20450;-83
2021/07/01 09:51:29;;;;;;;1.47;1.07;;;26.10;53.40;;;;;;4904412;29;20455;-83
2021/07/01 09:54:05;;;;;;;1.40;1.30;;;26.00;53.30;;;;;;4901692;29;20420;-83
2021/07/01 09:56:52;;;;;;;1.30;1.20;;;26.10;53.30;;;;;;4901497;29;20479;-83
2021/07/01 09:59:27;;;;;;;1.50;1.37;;;26.10;53.30;;;;;;4901992;29;20473;-83
2021/07/01 10:02:18;;;;;;;1.30;1.10;;;26.00;53.30;;;;;;4902487;29;20412;-83
2021/07/01 10:04:46;;;;;;;1.53;1.30;;;26.00;53.30;;;;;;4913671;29;20440;-82
2021/07/01 10:10:52;;;;;;;1.30;1.20;;;26.00;53.30;;;;;;4917620;29;20387;-82
2021/07/01 10:13:31;;;;;;;1.30;1.10;;;26.00;53.40;;;;;;4902147;29;20412;-82
2021/07/01 10:16:00;;;;;;;1.40;1.27;;;26.00;53.40;;;;;;4918106;29;20472;-82
2021/07/01 10:19:04;;;;;;;1.40;1.30;;;25.90;53.30;;;;;;4917854;29;20427;-82
2021/07/01 10:24:57;;;;;;;12.00;9.87;;;25.90;53.20;;;;;;4937404;29;20942;-82
2021/07/01 10:30:42;;;;;;;14.30;8.77;;;25.90;53.10;;;;;;4880735;29;20409;-82
2021/07/01 10:37:00;;;;;;;7.30;6.23;;;25.80;53.00;;;;;;4938769;29;20466;-81
2021/07/01 10:39:47;;;;;;;8.10;5.70;;;25.80;53.00;;;;;;4927126;29;20451;-82
2021/07/01 10:46:17;;;;;;;4.93;4.43;;;25.70;52.80;;;;;;4939545;29;20439;-82
2021/07/01 10:52:44;;;;;;;4.30;3.20;;;25.70;52.90;;;;;;4939328;29;20397;-82
2021/07/01 10:55:15;;;;;;;4.63;3.40;;;25.60;52.90;;;;;;4923989;29;20407;-81
2021/07/01 10:58:22;;;;;;;4.47;4.00;;;25.60;53.00;;;;;;4940263;29;20400;-82
2021/07/01 11:01:02;;;;;;;4.80;3.23;;;25.60;52.90;;;;;;4910825;29;20428;-82
2021/07/01 11:03:38;;;;;;;4.23;3.20;;;25.50;52.90;;;;;;4922843;29;20466;-82
2021/07/01 11:06:39;;;;;;;5.47;3.80;;;25.50;52.90;;;;;;4923192;29;20424;-81
2021/07/01 11:09:07;;;;;;;5.50;3.83;;;25.50;52.90;;;;;;4911529;29;20401;-83
2021/07/01 11:11:38;;;;;;;6.50;3.70;;;25.50;53.00;;;;;;4919750;29;20467;-81
2021/07/01 11:14:14;;;;;;;5.17;4.00;;;25.50;53.10;;;;;;4905787;29;20396;-82
2021/07/01 11:16:43;;;;;;;3.87;3.20;;;25.50;53.10;;;;;;4937524;29;20462;-82
2021/07/01 11:23:00;;;;;;;4.70;2.97;;;25.50;53.10;;;;;;4936467;29;20411;-82
2021/07/01 11:25:47;;;;;;;4.93;4.13;;;25.50;53.30;;;;;;4942962;29;20416;-82
2021/07/01 11:28:13;;;;;;;5.20;3.03;;;25.50;53.30;;;;;;4900835;29;20926;-81
2021/07/01 11:31:20;;;;;;;3.73;2.73;;;25.40;53.30;;;;;;4884324;29;20493;-83
2021/07/01 11:34:06;;;;;;;5.80;2.47;;;25.50;53.40;;;;;;4896448;29;20422;-83
2021/07/01 11:36:56;;;;;;;3.80;3.23;;;25.40;53.40;;;;;;4900320;29;20468;-82
2021/07/01 11:39:37;;;;;;;3.70;2.77;;;25.40;53.50;;;;;;4900454;29;20457;-82
2021/07/01 11:42:24;;;;;;;4.27;2.70;;;25.40;53.50;;;;;;4901677;29;20413;-83
2021/07/01 11:45:17;;;;;;;4.63;2.50;;;25.40;53.50;;;;;;4883107;29;20467;-83
2021/07/01 11:47:50;;;;;;;3.73;2.80;;;25.40;53.50;;;;;;4884226;29;20425;-82
2021/07/01 11:50:20;;;;;;;3.20;2.07;;;25.40;53.50;;;;;;4886810;29;20518;-84
2021/07/01 11:53:12;;;;;;;3.30;2.60;;;25.30;53.60;;;;;;4900695;29;20430;-83
2021/07/01 11:55:48;;;;;;;3.67;2.73;;;25.40;53.60;;;;;;4900659;29;20482;-83
2021/07/01 11:58:21;;;;;;;3.70;2.27;;;25.40;53.60;;;;;;4901701;29;20425;-84
2021/07/01 12:01:07;;;;;;;2.63;2.23;;;25.40;53.50;;;;;;4886063;29;20414;-84
2021/07/01 12:03:35;;;;;;;4.80;2.50;;;25.40;53.50;;;;;;4886313;29;20449;-84
2021/07/01 12:06:21;;;;;;;3.50;2.00;;;25.40;53.40;;;;;;4914865;29;20424;-84
2021/07/01 12:12:03;;;;;;;3.90;2.43;;;25.40;53.30;;;;;;4863210;29;20446;-83
2021/07/01 12:14:35;;;;;;;3.30;2.30;;;25.40;53.30;;;;;;4862440;29;20451;-84
2021/07/01 12:17:01;;;;;;;2.70;2.30;;;25.40;53.20;;;;;;4861699;29;20459;-84
2021/07/01 12:19:48;;;;;;;3.40;2.57;;;25.40;53.20;;;;;;4862515;29;20415;-83
2021/07/01 12:22:53;;;;;;;3.50;1.90;;;25.50;53.20;;;;;;4862414;29;20427;-83
2021/07/01 12:25:28;;;;;;;2.40;2.00;;;25.50;53.10;;;;;;4847396;29;20466;-83
2021/07/01 12:28:49;;;;;;;2.00;1.80;;;25.50;53.10;;;;;;4844080;29;20420;-83
2021/07/01 12:38:27;;;;;;;3.60;1.70;;;25.40;53.10;;;;;;4792533;29;20415;-83
2021/07/01 12:41:40;;;;;;;2.90;2.10;;;25.50;53.20;;;;;;4773006;30;20471;-83
2021/07/01 12:54:46;;;;;;;2.37;1.93;;;25.40;53.30;;;;;;4743071;30;20407;-81
2021/07/01 13:00:36;;;;;;;2.20;1.70;;;25.40;53.40;;;;;;4754686;30;20429;-81
2021/07/01 13:03:16;;;;;;;2.17;1.70;;;25.50;53.50;;;;;;4755945;30;20424;-81
2021/07/01 13:06:06;;;;;;;2.03;1.80;;;25.50;53.40;;;;;;4755887;30;20417;-81
2021/07/01 13:15:23;;;;;;;;;;;;;;;;;;;;;
2021/07/01 13:21:35;;;;;;;;;;;;;;;;;;;;;
2021/07/01 13:24:58;;;;;;;2.47;1.73;;;25.70;53.30;;;;;;4826153;29;20444;-81
2021/07/01 13:30:46;;;;;;;1.87;1.60;;;25.70;53.20;;;;;;4845807;29;20464;-80
2021/07/01 13:33:16;;;;;;;1.80;1.67;;;25.70;53.20;;;;;;4831029;29;20417;-80
2021/07/01 13:35:54;;;;;;;2.60;2.27;;;25.70;53.20;;;;;;4816401;29;20472;-81
2021/07/01 13:38:44;;;;;;;1.60;1.37;;;25.80;53.20;;;;;;4846523;29;20492;-80
2021/07/01 13:41:10;;;;;;;2.37;2.17;;;25.80;53.20;;;;;;4817334;29;20491;-79
2021/07/01 13:43:46;;;;;;;2.37;1.70;;;25.80;53.10;;;;;;4831917;29;20443;-80
2021/07/01 13:46:13;;;;;;;2.07;1.87;;;25.80;53.10;;;;;;4831656;29;20448;-79
2021/07/01 13:48:47;;;;;;;3.20;1.77;;;25.80;53.10;;;;;;4831018;29;20465;-80
2021/07/01 13:51:32;;;;;;;2.10;1.60;;;25.80;53.10;;;;;;4845940;29;20423;-80
2021/07/01 13:57:05;;;;;;;2.23;1.60;;;25.80;53.10;;;;;;4914133;29;20472;-80
2021/07/01 13:59:57;;;;;;;2.00;1.80;;;25.80;53.10;;;;;;4920271;29;20397;-80
2021/07/01 14:05:47;;;;;;;2.37;1.80;;;25.80;53.10;;;;;;4921794;29;20421;-80
2021/07/01 14:08:36;;;;;;;2.17;1.57;;;25.90;53.10;;;;;;4919975;29;20429;-79
2021/07/01 14:11:14;;;;;;;2.63;1.87;;;25.90;53.10;;;;;;4921130;29;20396;-80
2021/07/01 14:14:03;;;;;;;1.83;1.63;;;25.80;53.10;;;;;;4925219;29;20436;-80
2021/07/01 14:16:53;;;;;;;1.93;1.53;;;25.90;53.10;;;;;;4923892;29;20474;-80
2021/07/01 14:19:43;;;;;;;2.10;1.40;;;25.90;53.70;;;;;;4924924;29;20437;-79
2021/07/01 14:26:01;;;;;;;1.90;1.53;;;25.90;53.10;;;;;;4866678;29;20402;-81
2021/07/01 14:29:11;;;;;;;;;;;;;;;;;;;;;
2021/07/01 14:38:33;;;;;;;1.40;1.00;;;25.90;53.20;;;;;;4846255;29;20500;-81
2021/07/01 14:41:04;;;;;;;2.10;1.50;;;25.80;53.20;;;;;;4830072;29;20441;-80
2021/07/01 14:43:41;;;;;;;1.80;1.50;;;25.90;53.20;;;;;;4846243;29;20424;-81
2021/07/01 14:46:30;;;;;;;1.60;1.40;;;25.90;53.20;;;;;;4845549;29;20424;-81
2021/07/01 14:49:42;;;;;;;;;;;;;;;;;;;;;
2021/07/01 14:52:21;;;;;;;2.13;1.63;;;25.90;53.10;;;;;;4833796;29;20536;-82
2021/07/01 14:54:54;;;;;;;2.43;1.73;;;25.90;53.20;;;;;;4829639;29;20435;-81
2021/07/01 14:57:26;;;;;;;1.90;1.50;;;25.90;53.10;;;;;;4829533;29;20494;-81
2021/07/01 15:00:03;;;;;;;1.60;1.43;;;26.00;53.20;;;;;;4875113;29;20426;-81
2021/07/01 15:02:41;;;;;;;2.00;1.63;;;26.00;53.10;;;;;;4894276;29;20404;-81
2021/07/01 15:05:20;;;;;;;1.70;1.50;;;26.00;53.10;;;;;;4920141;29;20420;-81
2021/07/01 15:08:11;;;;;;;;;;;;;;;;;;;;;
2021/07/01 15:10:51;;;;;;;1.47;1.13;;;26.00;53.10;;;;;;4924408;29;20416;-81
2021/07/01 15:13:46;;;;;;;2.43;1.70;;;25.90;53.00;;;;;;4924152;29;20405;-80
2021/07/01 15:26:06;;;;;;;1.97;1.33;;;26.00;53.10;;;;;;4885840;29;20379;-80
2021/07/01 15:28:32;;;;;;;2.70;1.50;;;26.00;53.20;;;;;;4870401;29;20529;-80
2021/07/01 15:30:59;;;;;;;2.13;1.20;;;25.90;53.10;;;;;;4885244;29;20422;-80
2021/07/01 15:33:30;;;;;;;1.60;1.33;;;25.90;53.10;;;;;;4885396;29;20246;-80
2021/07/01 15:35:59;;;;;;;1.63;1.33;;;26.00;53.10;;;;;;4885035;29;20464;-80
2021/07/01 15:38:34;;;;;;;1.43;1.17;;;26.00;53.10;;;;;;4900179;29;20489;-80
2021/07/01 15:41:07;;;;;;;1.80;1.43;;;26.00;53.10;;;;;;4888009;29;20531;-80
2021/07/01 15:46:59;;;;;;;2.30;1.70;;;26.10;53.10;;;;;;4904018;29;20425;-80
2021/07/01 15:49:33;;;;;;;1.37;1.27;;;26.00;53.10;;;;;;4903673;29;20518;-79
2021/07/01 15:51:59;;;;;;;2.20;1.20;;;26.00;53.70;;;;;;4903765;29;20515;-80
2021/07/01 15:54:28;;;;;;;2.20;1.20;;;26.00;53.10;;;;;;4903752;29;20423;-79
2021/07/01 16:03:25;;;;;;;1.50;1.27;;;26.00;53.10;;;;;;4866483;29;20424;-80
2021/07/01 16:09:21;;;;;;;2.47;1.33;;;26.00;53.10;;;;;;4866364;29;20383;-80
2021/07/01 16:11:54;;;;;;;1.90;1.70;;;26.00;53.20;;;;;;4821111;29;20432;-80
2021/07/01 16:14:25;;;;;;;1.40;1.23;;;26.00;53.20;;;;;;4846554;29;20445;-81
2021/07/01 16:16:54;;;;;;;1.50;1.27;;;26.00;53.20;;;;;;4836235;29;20475;-81
2021/07/01 16:22:18;;;;;;;2.20;1.20;;;26.00;53.20;;;;;;4866528;29;20467;-80
2021/07/01 16:24:59;;;;;;;1.50;1.20;;;26.00;53.20;;;;;;4851323;29;20454;-80
2021/07/01 16:27:29;;;;;;;1.87;1.40;;;26.10;53.20;;;;;;4850795;29;20427;-79
2021/07/01 16:30:15;;;;;;;2.00;1.13;;;26.00;53.10;;;;;;4851011;29;20443;-83
2021/07/01 16:32:46;;;;;;;1.40;1.17;;;26.00;53.10;;;;;;4865869;29;20432;-80
2021/07/01 16:35:17;;;;;;;1.70;1.40;;;26.10;53.20;;;;;;4848516;29;20423;-82
2021/07/01 16:37:48;;;;;;;2.20;1.50;;;26.00;53.10;;;;;;4850157;29;20439;-80
2021/07/01 16:40:29;;;;;;;1.60;1.27;;;26.10;53.20;;;;;;4850034;29;20447;-80
2021/07/01 16:43:26;;;;;;;1.70;1.40;;;26.10;53.20;;;;;;4851149;29;20499;-80
2021/07/01 16:46:05;;;;;;;1.70;1.53;;;26.10;53.20;;;;;;4862394;29;20419;-81
2021/07/01 16:48:40;;;;;;;1.57;1.47;;;26.10;53.20;;;;;;4862919;29;20423;-81
2021/07/01 16:51:17;;;;;;;1.50;1.13;;;26.00;53.20;;;;;;4848763;29;20499;-82
2021/07/01 16:53:51;;;;;;;1.80;1.10;;;26.10;53.20;;;;;;4847786;29;20411;-80
2021/07/01 16:56:27;;;;;;;2.43;1.50;;;26.10;53.30;;;;;;4846931;29;20502;-83
2021/07/01 16:58:58;;;;;;;2.17;1.43;;;26.10;53.20;;;;;;4863224;29;20419;-81
2021/07/01 17:04:30;;;;;;;1.80;1.10;;;26.10;53.30;;;;;;4803320;30;20431;-84
2021/07/01 17:07:02;;;;;;;1.70;1.47;;;26.00;53.20;;;;;;4790702;30;20445;-83
2021/07/01 17:09:34;;;;;;;2.27;1.43;;;26.10;53.20;;;;;;4791318;30;20841;-85
2021/07/01 17:12:32;;;;;;;2.30;1.40;;;26.10;53.20;;;;;;4804672;30;20430;-85
2021/07/01 17:15:07;;;;;;;1.50;1.40;;;26.10;53.20;;;;;;4791471;30;20446;-84
2021/07/01 17:17:38;;;;;;;3.30;1.57;;;26.10;53.20;;;;;;4808744;30;20453;-82
2021/07/01 17:20:13;;;;;;;2.80;1.67;;;26.00;53.10;;;;;;4806909;30;20418;-82
2021/07/01 17:26:25;;;;;;;2.90;1.80;;;26.00;53.00;;;;;;4805506;30;20420;-83
2021/07/01 17:29:04;;;;;;;2.67;1.87;;;26.00;52.90;;;;;;4785421;30;20494;-83
2021/07/01 17:31:31;;;;;;;3.97;1.80;;;26.00;53.00;;;;;;4805211;30;20513;-82
2021/07/01 17:33:57;;;;;;;2.00;1.43;;;25.90;52.90;;;;;;4804527;30;20454;-82
2021/07/01 17:36:28;;;;;;;1.73;1.63;;;25.90;52.90;;;;;;4805110;30;20489;-81
2021/07/01 17:38:58;;;;;;;2.40;1.47;;;25.90;52.80;;;;;;4805234;30;20192;-82
2021/07/01 17:44:57;;;;;;;2.83;1.77;;;25.90;52.80;;;;;;4787255;30;20506;-83
2021/07/01 17:47:41;;;;;;;3.37;2.20;;;25.90;52.80;;;;;;4780625;30;20435;-83
2021/07/01 17:50:14;;;;;;;2.67;2.47;;;25.90;52.80;;;;;;4781516;30;20443;-83
2021/07/01 17:52:45;;;;;;;1.70;1.60;;;25.90;52.70;;;;;;4780363;30;20435;-83
2021/07/01 17:55:13;;;;;;;4.80;1.80;;;25.90;52.70;;;;;;4781703;30;20938;-83
2021/07/01 17:58:05;;;;;;;3.87;1.67;;;25.90;52.70;;;;;;4765801;30;20486;-83
2021/07/01 18:00:34;;;;;;;3.00;2.20;;;25.80;52.70;;;;;;4781308;30;20856;-83
2021/07/01 18:03:06;;;;;;;2.13;1.93;;;25.80;52.70;;;;;;4817423;29;20429;-83
2021/07/01 18:05:50;;;;;;;6.03;2.17;;;25.80;52.60;;;;;;4835735;29;20470;-83
2021/07/01 18:08:16;;;;;;;3.17;2.87;;;25.80;52.70;;;;;;4895291;29;20425;-83
2021/07/01 18:11:04;;;;;;;2.13;1.57;;;25.80;52.70;;;;;;4912001;29;20445;-87
2021/07/01 18:13:51;;;;;;;3.63;1.97;;;25.80;52.70;;;;;;4910982;29;20173;-83
2021/07/01 18:16:27;;;;;;;3.03;2.30;;;25.80;52.70;;;;;;4909857;29;20467;-83
2021/07/01 18:19:32;;;;;;;5.63;2.10;;;25.80;52.70;;;;;;4910815;29;20433;-90
2021/07/01 18:22:06;;;;;;;4.77;1.80;;;25.80;52.80;;;;;;4910374;29;20416;-81
2021/07/01 18:24:38;;;;;;;3.67;2.30;;;25.80;52.80;;;;;;4910325;29;20433;-83
2021/07/01 18:27:20;;;;;;;5.07;2.37;;;25.80;52.80;;;;;;4910367;29;20484;-82
2021/07/01 18:30:10;;;;;;;4.47;2.00;;;25.80;52.80;;;;;;4910688;29;20424;-83
2021/07/01 18:32:55;;;;;;;2.77;2.50;;;25.80;52.80;;;;;;4910653;29;20437;-83
2021/07/01 18:35:24;;;;;;;4.00;1.80;;;25.80;53.40;;;;;;4911370;29;20438;-83
2021/07/01 18:38:29;;;;;;;2.63;2.20;;;25.80;52.80;;;;;;4911220;29;20428;-84
2021/07/01 18:41:08;;;;;;;3.33;2.03;;;25.80;52.80;;;;;;4871672;29;20460;-83
2021/07/01 18:43:38;;;;;;;2.37;2.13;;;25.80;52.90;;;;;;4941200;29;20454;-83
2021/07/01 18:49:36;;;;;;;2.73;2.27;;;25.80;52.90;;;;;;4953435;29;20451;-83
2021/07/01 18:52:05;;;;;;;2.57;2.37;;;25.80;52.90;;;;;;4935355;29;20430;-83
2021/07/01 19:00:48;;;;;;;2.43;2.23;;;25.80;52.90;;;;;;4891814;29;20500;-82
2021/07/01 19:03:14;;;;;;;2.37;2.00;;;25.80;53.00;;;;;;4868941;29;20470;-81
2021/07/01 19:05:44;;;;;;;2.60;2.40;;;25.80;53.00;;;;;;4878581;29;20432;-82
2021/07/01 19:08:32;;;;;;;3.30;2.10;;;25.80;52.90;;;;;;4849778;29;20201;-83
2021/07/01 19:10:58;;;;;;;2.37;2.17;;;25.80;52.90;;;;;;4848526;29;20443;-82
2021/07/01 19:13:47;;;;;;;3.20;1.93;;;25.80;52.90;;;;;;4864165;29;20458;-83
2021/07/01 19:16:12;;;;;;;2.20;2.00;;;25.80;52.90;;;;;;4864920;29;20471;-83
2021/07/01 19:25:23;;;;;;;2.10;1.90;;;25.80;52.90;;;;;;4811164;29;20409;-83
2021/07/01 19:27:49;;;;;;;2.40;2.20;;;25.70;53.00;;;;;;4811178;30;20418;-83
2021/07/01 19:30:27;;;;;;;4.23;2.70;;;25.70;53.00;;;;;;4811265;30;20411;-83
2021/07/01 19:32:55;;;;;;;4.13;2.37;;;25.60;52.90;;;;;;4796795;30;20188;-83
2021/07/01 19:35:36;;;;;;;2.50;2.30;;;25.70;53.10;;;;;;4875633;29;20439;-83
2021/07/01 19:38:08;;;;;;;2.63;1.90;;;25.70;53.10;;;;;;4870089;29;20447;-83
2021/07/01 19:40:55;;;;;;;2.20;2.00;;;25.70;53.10;;;;;;4864115;29;20455;-83
2021/07/01 19:43:36;;;;;;;2.30;1.90;;;25.70;53.10;;;;;;4864973;29;20443;-82
2021/07/01 19:46:09;;;;;;;2.03;1.80;;;25.60;53.10;;;;;;4848411;29;20483;-83
2021/07/01 19:48:44;;;;;;;2.33;1.90;;;25.60;53.10;;;;;;4860991;29;20514;-83
2021/07/01 19:51:21;;;;;;;2.00;1.63;;;25.60;53.20;;;;;;4881190;29;20421;-82
2021/07/01 19:54:25;;;;;;;2.07;1.80;;;25.60;53.20;;;;;;4857290;29;20439;-82
2021/07/01 19:57:09;;;;;;;2.70;2.40;;;25.60;53.20;;;;;;4857239;29;20547;-83
2021/07/01 19:59:44;;;;;;;2.70;2.47;;;25.60;53.20;;;;;;4911563;29;20429;-82
2021/07/01 20:02:33;;;;;;;3.10;1.80;;;25.60;53.30;;;;;;4919361;29;20408;-82
2021/07/01 20:05:31;;;;;;;3.00;2.10;;;25.60;53.30;;;;;;4889943;29;20453;-82
2021/07/01 20:08:00;;;;;;;2.23;2.03;;;25.50;53.30;;;;;;4917781;29;20439;-83
2021/07/01 20:10:49;;;;;;;2.80;2.40;;;25.50;53.30;;;;;;4917511;29;20488;-83
2021/07/01 20:19:58;;;;;;;3.20;2.00;;;25.50;53.40;;;;;;4826816;29;20389;-83
2021/07/01 20:26:41;;;;;;;2.77;2.17;;;25.50;53.50;;;;;;4880202;29;20430;-82